Time;durP1;ratioP1;P1;durP2;ratioP2;P2;SDS_P1;SDS_P2;PMS_P1;PMS_P2;Temp;Humidity;BMP_temperature;BMP_pressure;BME280_temperature;BME280_humidity;BME280_pressure;Samples;Min_cycle;Max_cycle;Signal;HPM_P1;HPM_P2
2023/11/03 00:00:04;;;;;;;6.67;3.80;;;;;;;11.20;100.00;100490.31;2607647;22;20616;-72
2023/11/03 00:01:05;;;;;;;6.47;3.53;;;;;;;11.50;100.00;100527.91;2607794;22;20233;-72
2023/11/03 00:02:08;;;;;;;10.03;5.17;;;;;;;11.26;100.00;100498.88;2607558;22;20969;-72
2023/11/03 00:03:08;;;;;;;6.53;4.17;;;;;;;11.06;100.00;100468.53;2607838;22;20376;-72
2023/11/03 00:04:09;;;;;;;6.97;4.50;;;;;;;11.36;100.00;100512.44;2607637;22;20494;-72
2023/11/03 00:05:12;;;;;;;7.67;4.00;;;;;;;11.03;100.00;100471.41;2607906;22;20158;-72
2023/11/03 00:06:12;;;;;;;10.27;4.13;;;;;;;11.42;100.00;100523.78;2607209;22;20150;-72
2023/11/03 00:07:14;;;;;;;6.37;3.90;;;;;;;11.41;100.00;100523.00;2607113;22;20382;-70
2023/11/03 00:08:16;;;;;;;6.40;3.90;;;;;;;11.35;100.00;100512.88;2593777;22;20155;-70
2023/11/03 00:09:17;;;;;;;5.87;3.60;;;;;;;11.42;100.00;100523.78;2594396;22;20894;-69
2023/11/03 00:10:17;;;;;;;5.27;3.10;;;;;;;11.43;100.00;100522.56;2607700;22;20792;-69
2023/11/03 00:11:18;;;;;;;6.23;3.40;;;;;;;11.39;100.00;100510.78;2606945;22;20230;-69
2023/11/03 00:12:18;;;;;;;5.03;3.10;;;;;;;10.62;100.00;100415.94;2607179;22;20146;-69
2023/11/03 00:13:19;;;;;;;5.57;3.03;;;;;;;11.33;100.00;100512.56;2607566;22;20150;-69
2023/11/03 00:14:20;;;;;;;6.70;3.60;;;;;;;11.36;100.00;100509.66;2607755;22;20150;-69
2023/11/03 00:15:22;;;;;;;6.37;4.13;;;;;;;11.39;100.00;100514.34;2607536;22;20454;-69
2023/11/03 00:16:22;;;;;;;5.77;3.17;;;;;;;11.42;100.00;100523.78;2607211;22;20221;-69
2023/11/03 00:17:23;;;;;;;4.53;2.93;;;;;;;11.23;100.00;100483.88;2607166;22;20380;-69
2023/11/03 00:18:23;;;;;;;5.27;3.50;;;;;;;11.42;100.00;100505.13;2607584;22;20156;-69
2023/11/03 00:19:25;;;;;;;5.17;3.40;;;;;;;11.36;100.00;100503.34;2607583;22;20180;-69
2023/11/03 00:20:25;;;;;;;5.77;3.70;;;;;;;11.39;100.00;100496.91;2607721;22;20622;-69
2023/11/03 00:21:28;;;;;;;5.40;3.20;;;;;;;11.38;100.00;100484.28;2594009;22;20778;-69
2023/11/03 00:22:30;;;;;;;8.10;3.70;;;;;;;11.46;100.00;100480.84;2594682;22;20147;-70
2023/11/03 00:23:31;;;;;;;10.13;3.10;;;;;;;11.17;100.00;100423.88;2607655;22;20377;-71
2023/11/03 00:24:32;;;;;;;7.30;3.43;;;;;;;11.40;100.00;100449.31;2607409;22;20835;-71
2023/11/03 00:25:33;;;;;;;5.17;3.37;;;;;;;11.31;100.00;100446.41;2607133;22;20683;-72
2023/11/03 00:26:33;;;;;;;5.63;3.20;;;;;;;11.25;100.00;100442.63;2606499;22;20173;-72
2023/11/03 00:27:34;;;;;;;6.00;3.73;;;;;;;11.25;100.00;100439.84;2594093;22;20501;-72
2023/11/03 00:28:34;;;;;;;5.63;2.90;;;;;;;11.31;100.00;100443.63;2593715;22;20190;-72
2023/11/03 00:29:35;;;;;;;6.83;2.93;;;;;;;11.32;100.00;100439.63;2607727;22;20142;-70
2023/11/03 00:30:35;;;;;;;5.87;3.07;;;;;;;11.36;100.00;100448.63;2607463;22;20223;-70
2023/11/03 00:31:37;;;;;;;7.50;3.00;;;;;;;11.36;100.00;100459.72;2607924;22;20172;-69
2023/11/03 00:32:38;;;;;;;9.60;3.63;;;;;;;11.38;100.00;100468.38;2607609;22;20154;-70
2023/11/03 00:33:38;;;;;;;7.10;3.77;;;;;;;11.41;100.00;100475.84;2607481;22;20405;-69
2023/11/03 00:34:39;;;;;;;6.83;3.60;;;;;;;11.41;100.00;100484.16;2607538;22;20372;-70
2023/11/03 00:35:41;;;;;;;12.03;3.10;;;;;;;10.88;100.00;100393.41;2607777;22;20215;-72
2023/11/03 00:36:43;;;;;;;8.77;3.80;;;;;;;11.50;100.00;100478.75;2606521;22;20663;-72
2023/11/03 00:37:44;;;;;;;5.90;3.43;;;;;;;11.10;100.00;100422.06;2607548;22;20774;-72
2023/11/03 00:38:46;;;;;;;5.80;3.10;;;;;;;11.45;100.00;100462.63;2606999;22;20372;-72
2023/11/03 00:39:47;;;;;;;6.30;3.13;;;;;;;11.46;100.00;100458.66;2607625;22;20369;-72
2023/11/03 00:40:47;;;;;;;6.10;3.47;;;;;;;11.46;100.00;100455.88;2607573;22;20377;-72
2023/11/03 00:41:51;;;;;;;7.07;3.90;;;;;;;11.44;100.00;100451.97;2607606;22;20157;-72
2023/11/03 00:42:58;;;;;;;7.77;3.10;;;;;;;11.31;100.00;100435.31;2607628;22;20196;-72
2023/11/03 00:43:59;;;;;;;6.60;3.43;;;;;;;11.44;100.00;100454.75;2607522;22;20356;-72
2023/11/03 00:44:59;;;;;;;5.90;3.07;;;;;;;11.42;100.00;100446.88;2607749;22;20873;-72
2023/11/03 00:46:00;;;;;;;6.67;3.30;;;;;;;11.39;100.00;100455.31;2607548;22;20143;-72
2023/11/03 00:47:01;;;;;;;9.70;3.80;;;;;;;10.62;100.00;100346.66;2606659;22;20147;-72
2023/11/03 00:48:01;;;;;;;6.47;3.60;;;;;;;11.36;100.00;100458.94;2607284;22;20376;-72
2023/11/03 00:49:02;;;;;;;7.30;3.40;;;;;;;11.42;100.00;100474.63;2607615;22;20201;-72
2023/11/03 00:50:03;;;;;;;6.00;3.37;;;;;;;11.40;100.00;100477.06;2607481;22;20166;-72
2023/11/03 00:51:04;;;;;;;8.43;3.60;;;;;;;11.34;100.00;100476.06;2607738;22;20142;-72
2023/11/03 00:52:07;;;;;;;7.97;3.60;;;;;;;11.43;100.00;100486.50;2607438;22;20663;-72
2023/11/03 00:53:07;;;;;;;6.27;3.80;;;;;;;11.46;100.00;100502.25;2607236;22;20154;-72
2023/11/03 00:54:09;;;;;;;5.90;3.10;;;;;;;11.40;100.00;100502.03;2607573;22;20389;-72
2023/11/03 00:55:10;;;;;;;7.40;3.57;;;;;;;11.34;100.00;100508.56;2607577;22;20600;-72
2023/11/03 00:56:10;;;;;;;8.47;3.90;;;;;;;11.33;100.00;100518.88;2607042;22;20457;-72
2023/11/03 00:57:11;;;;;;;6.23;3.50;;;;;;;11.33;100.00;100532.75;2607042;22;20150;-72
2023/11/03 00:58:11;;;;;;;5.80;3.20;;;;;;;11.32;100.00;100533.97;2607382;22;20555;-72
2023/11/03 00:59:11;;;;;;;4.83;3.27;;;;;;;11.32;100.00;100541.53;2607571;22;20251;-72
2023/11/03 01:00:12;;;;;;;5.80;3.07;;;;;;;11.31;100.00;100540.72;2607487;22;20179;-72
2023/11/03 01:01:13;;;;;;;5.47;3.30;;;;;;;11.30;100.00;100546.72;2607578;22;20150;-72
2023/11/03 01:02:14;;;;;;;6.57;3.43;;;;;;;11.27;100.00;100539.28;2607459;22;20623;-72
2023/11/03 01:03:14;;;;;;;5.57;3.33;;;;;;;10.51;100.00;100427.28;2607662;22;20150;-72
2023/11/03 01:04:15;;;;;;;4.57;2.83;;;;;;;11.11;100.00;100517.13;2607455;22;20377;-72
2023/11/03 01:05:17;;;;;;;5.73;3.40;;;;;;;11.18;100.00;100514.16;2594038;22;20147;-72
2023/11/03 01:06:18;;;;;;;5.20;3.20;;;;;;;11.04;100.00;100497.91;2593873;22;20229;-72
2023/11/03 01:07:18;;;;;;;4.67;2.60;;;;;;;11.14;100.00;100508.72;2606492;22;20380;-72
2023/11/03 01:08:20;;;;;;;6.10;3.00;;;;;;;11.11;100.00;100508.81;2607349;22;20381;-72
2023/11/03 01:09:22;;;;;;;5.00;2.83;;;;;;;11.09;100.00;100503.72;2607515;22;20147;-72
2023/11/03 01:10:22;;;;;;;6.20;3.37;;;;;;;11.09;100.00;100512.03;2607641;22;20437;-72
2023/11/03 01:11:26;;;;;;;4.30;2.97;;;;;;;11.07;100.00;100506.13;2607598;22;20373;-72
2023/11/03 01:12:26;;;;;;;4.53;2.93;;;;;;;11.09;100.00;100511.25;2607526;22;20145;-72
2023/11/03 01:13:28;;;;;;;7.53;3.20;;;;;;;11.07;100.00;100510.91;2607518;22;20387;-72
2023/11/03 01:14:32;;;;;;;4.90;3.00;;;;;;;11.01;100.00;100499.56;2607672;22;20147;-72
2023/11/03 01:15:34;;;;;;;6.83;3.00;;;;;;;11.04;100.00;100504.25;2607619;22;20373;-72
2023/11/03 01:16:38;;;;;;;6.47;3.60;;;;;;;10.97;100.00;100490.56;2606356;22;20799;-72
2023/11/03 01:17:41;;;;;;;4.67;3.23;;;;;;;10.95;100.00;100493.00;2607831;22;21081;-72
2023/11/03 01:18:42;;;;;;;4.50;2.90;;;;;;;10.95;100.00;100481.91;2607246;22;20381;-72
2023/11/03 01:19:45;;;;;;;6.67;3.50;;;;;;;10.27;100.00;100380.88;2607729;22;20432;-72
2023/11/03 01:20:48;;;;;;;5.67;3.33;;;;;;;10.72;100.00;100454.41;2606663;22;20856;-72
2023/11/03 01:21:49;;;;;;;5.17;3.03;;;;;;;10.63;100.00;100443.22;2593473;22;20378;-72
2023/11/03 01:22:49;;;;;;;4.07;2.47;;;;;;;10.72;100.00;100451.66;2594071;22;20370;-72
2023/11/03 01:23:52;;;;;;;5.17;2.83;;;;;;;10.73;100.00;100450.47;2607426;22;20170;-72
2023/11/03 01:24:52;;;;;;;4.53;2.77;;;;;;;10.65;100.00;100451.09;2607422;22;20290;-72
2023/11/03 01:25:54;;;;;;;6.70;3.30;;;;;;;10.66;100.00;100447.88;2607299;22;20869;-72
2023/11/03 01:26:55;;;;;;;7.40;3.33;;;;;;;10.71;100.00;100454.88;2606698;22;20593;-72
2023/11/03 01:28:14;;;;;;;6.03;3.47;;;;;;;10.75;100.00;100461.09;2608034;22;20732;-72
2023/11/03 01:29:14;;;;;;;7.60;3.47;;;;;;;10.77;100.00;100464.97;2608628;22;20667;-72
2023/11/03 01:30:17;;;;;;;7.10;3.77;;;;;;;10.77;100.00;100453.88;2608438;22;20725;-72
2023/11/03 01:31:19;;;;;;;6.17;3.20;;;;;;;10.82;100.00;100458.16;2608393;22;20260;-72
2023/11/03 01:32:19;;;;;;;6.97;3.60;;;;;;;10.83;100.00;100457.72;2608361;22;20387;-72
2023/11/03 01:33:20;;;;;;;5.53;3.47;;;;;;;10.85;100.00;100463.59;2608303;22;20387;-72
2023/11/03 01:34:20;;;;;;;6.80;3.13;;;;;;;10.86;100.00;100458.81;2608390;22;20181;-72
2023/11/03 01:35:24;;;;;;;6.77;4.20;;;;;;;10.87;100.00;100452.81;2607803;22;20183;-72
2023/11/03 01:36:24;;;;;;;8.33;4.13;;;;;;;10.87;100.00;100452.06;2607854;22;20225;-72
2023/11/03 01:37:25;;;;;;;5.47;2.83;;;;;;;10.79;100.00;100457.03;2607854;22;20881;-72
2023/11/03 01:38:26;;;;;;;6.17;3.40;;;;;;;10.77;100.00;100461.44;2608260;22;20146;-72
2023/11/03 01:39:26;;;;;;;7.20;3.97;;;;;;;10.80;100.00;100460.56;2608304;22;20178;-72
2023/11/03 01:40:27;;;;;;;11.80;4.00;;;;;;;10.78;100.00;100460.22;2608233;22;20146;-72
2023/11/03 01:41:27;;;;;;;12.23;3.90;;;;;;;10.78;100.00;100466.56;2608255;22;20151;-72
2023/11/03 01:42:28;;;;;;;8.17;4.73;;;;;;;10.73;100.00;100453.22;2608331;22;20225;-72
2023/11/03 01:43:30;;;;;;;14.53;3.97;;;;;;;9.95;100.00;100336.59;2608308;22;20207;-72
2023/11/03 01:44:32;;;;;;;7.53;4.00;;;;;;;10.89;100.00;100455.94;2608214;22;20241;-72
2023/11/03 01:45:33;;;;;;;7.70;3.63;;;;;;;10.90;100.00;100457.50;2594827;22;20385;-72
2023/11/03 01:46:35;;;;;;;7.03;3.93;;;;;;;10.78;100.00;100441.63;2593576;22;20456;-72
2023/11/03 01:47:36;;;;;;;6.90;3.57;;;;;;;10.92;100.00;100443.97;2608478;22;20154;-70
2023/11/03 01:48:37;;;;;;;7.50;3.90;;;;;;;10.94;100.00;100438.00;2607384;22;20381;-69
2023/11/03 01:49:37;;;;;;;7.63;4.20;;;;;;;10.84;100.00;100426.00;2608308;22;20146;-72
2023/11/03 01:50:40;;;;;;;6.33;3.60;;;;;;;10.93;100.00;100428.13;2608327;22;20174;-72
2023/11/03 01:51:42;;;;;;;6.37;3.90;;;;;;;10.98;100.00;100436.69;2608507;22;20154;-72
2023/11/03 01:52:44;;;;;;;6.80;4.20;;;;;;;11.00;100.00;100433.47;2594675;22;20392;-72
2023/11/03 01:53:45;;;;;;;4.80;3.30;;;;;;;10.76;100.00;100404.47;2594878;22;20436;-72
2023/11/03 01:54:45;;;;;;;7.07;3.70;;;;;;;11.06;100.00;100443.56;2608237;22;20438;-72
2023/11/03 01:55:47;;;;;;;6.70;4.30;;;;;;;11.07;100.00;100436.03;2608204;22;20147;-72
2023/11/03 01:56:47;;;;;;;6.10;3.60;;;;;;;10.88;100.00;100414.81;2607350;22;20154;-72
2023/11/03 01:57:49;;;;;;;6.40;3.50;;;;;;;10.97;100.00;100418.47;2608229;22;20377;-72
2023/11/03 01:58:50;;;;;;;7.30;3.90;;;;;;;11.11;100.00;100437.50;2608119;22;20655;-72
2023/11/03 01:59:53;;;;;;;6.60;3.80;;;;;;;11.13;100.00;100429.50;2608291;22;20702;-72
2023/11/03 02:00:54;;;;;;;6.90;3.70;;;;;;;11.10;100.00;100415.75;2608376;22;20157;-72
2023/11/03 02:01:56;;;;;;;6.80;3.93;;;;;;;11.18;100.00;100426.19;2607993;22;20381;-72
2023/11/03 02:02:56;;;;;;;6.37;3.23;;;;;;;11.19;100.00;100421.41;2607859;22;20866;-72
2023/11/03 02:03:57;;;;;;;6.30;3.80;;;;;;;11.18;100.00;100408.78;2608342;22;20718;-72
2023/11/03 02:04:57;;;;;;;7.53;4.13;;;;;;;11.15;100.00;100412.41;2608434;22;20192;-72
2023/11/03 02:05:58;;;;;;;5.43;3.70;;;;;;;11.12;100.00;100414.06;2608038;22;20719;-72
2023/11/03 02:06:59;;;;;;;4.90;3.43;;;;;;;11.14;100.00;100414.44;2607264;22;20222;-72
2023/11/03 02:07:59;;;;;;;5.03;3.30;;;;;;;11.18;100.00;100417.09;2607829;22;20492;-72
2023/11/03 02:08:59;;;;;;;8.17;3.43;;;;;;;10.79;100.00;100367.53;2608319;22;20154;-72
2023/11/03 02:10:00;;;;;;;6.97;3.47;;;;;;;11.16;100.00;100425.84;2608083;22;20175;-72
2023/11/03 02:11:00;;;;;;;8.90;3.93;;;;;;;11.03;100.00;100404.88;2608266;22;20146;-72
2023/11/03 02:12:01;;;;;;;7.33;3.93;;;;;;;11.18;100.00;100422.66;2608115;22;20146;-70
2023/11/03 02:13:04;;;;;;;8.77;4.27;;;;;;;11.08;100.00;100399.56;2608091;22;20223;-69
2023/11/03 02:14:04;;;;;;;8.80;3.90;;;;;;;11.21;100.00;100418.97;2608054;22;20529;-69
2023/11/03 02:15:05;;;;;;;7.77;3.27;;;;;;;10.69;100.00;100341.69;2608246;22;20372;-70
2023/11/03 02:16:06;;;;;;;4.87;3.30;;;;;;;11.21;100.00;100424.53;2607489;22;20147;-69
2023/11/03 02:17:07;;;;;;;5.07;3.23;;;;;;;11.19;100.00;100444.41;2607779;22;20154;-69
2023/11/03 02:18:09;;;;;;;7.27;3.03;;;;;;;11.08;100.00;100420.97;2608151;22;20858;-69
2023/11/03 02:19:11;;;;;;;4.23;2.57;;;;;;;10.58;100.00;100332.13;2608212;22;20193;-69
2023/11/03 02:20:11;;;;;;;6.43;2.80;;;;;;;11.16;100.00;100422.28;2608133;22;20851;-69
2023/11/03 02:21:13;;;;;;;6.43;3.57;;;;;;;11.17;100.00;100421.84;2608311;22;20713;-69
2023/11/03 02:22:13;;;;;;;5.47;2.97;;;;;;;11.16;100.00;100436.16;2608083;22;20150;-69
2023/11/03 02:23:13;;;;;;;11.17;3.80;;;;;;;11.14;100.00;100419.97;2608181;22;20379;-70
2023/11/03 02:24:14;;;;;;;6.90;3.30;;;;;;;11.13;100.00;100412.84;2608017;22;20650;-69
2023/11/03 02:25:14;;;;;;;5.93;3.53;;;;;;;11.13;100.00;100414.88;2607922;22;20204;-69
2023/11/03 02:26:15;;;;;;;7.70;3.40;;;;;;;11.05;100.00;100403.22;2607626;22;20176;-69
2023/11/03 02:27:15;;;;;;;6.07;3.70;;;;;;;11.11;100.00;100418.06;2607563;22;20146;-70
2023/11/03 02:28:17;;;;;;;8.07;4.00;;;;;;;11.06;100.00;100409.53;2607838;22;20231;-72
2023/11/03 02:29:18;;;;;;;8.40;3.63;;;;;;;11.05;100.00;100413.50;2608217;22;20372;-72
2023/11/03 02:30:18;;;;;;;4.67;2.87;;;;;;;11.04;100.00;100414.72;2607438;22;20171;-72
2023/11/03 02:31:19;;;;;;;9.07;3.37;;;;;;;11.04;100.00;100420.28;2607918;22;20865;-72
2023/11/03 02:32:19;;;;;;;7.17;3.67;;;;;;;11.02;100.00;100414.41;2607990;22;20146;-72
2023/11/03 02:33:19;;;;;;;9.67;3.50;;;;;;;11.01;100.00;100412.84;2608071;22;20150;-72
2023/11/03 02:34:20;;;;;;;9.67;3.93;;;;;;;10.87;100.00;100399.41;2608205;22;20615;-72
2023/11/03 02:35:21;;;;;;;10.07;3.97;;;;;;;11.01;100.00;100410.84;2608117;22;20157;-72
2023/11/03 02:36:23;;;;;;;9.77;3.90;;;;;;;10.85;100.00;100391.50;2594108;22;20234;-72
2023/11/03 02:37:23;;;;;;;10.70;3.50;;;;;;;10.97;100.00;100407.38;2594037;22;20174;-72
2023/11/03 02:38:24;;;;;;;5.83;3.30;;;;;;;10.96;100.00;100419.69;2607693;22;20843;-72
2023/11/03 02:39:25;;;;;;;8.57;3.83;;;;;;;10.91;100.00;100417.47;2608046;22;20178;-72
2023/11/03 02:40:26;;;;;;;4.87;2.80;;;;;;;10.90;100.00;100424.22;2608153;22;20544;-72
2023/11/03 02:41:28;;;;;;;5.87;3.53;;;;;;;10.75;100.00;100400.91;2607934;22;20373;-72
2023/11/03 02:42:28;;;;;;;7.23;3.40;;;;;;;10.86;100.00;100417.25;2608046;22;20150;-72
2023/11/03 02:43:28;;;;;;;6.90;3.40;;;;;;;10.83;100.00;100421.69;2594472;22;20393;-72
2023/11/03 02:44:29;;;;;;;7.20;3.83;;;;;;;10.84;100.00;100414.13;2593776;22;20218;-72
2023/11/03 02:45:30;;;;;;;5.33;3.50;;;;;;;10.83;100.00;100418.09;2608039;22;20222;-72
2023/11/03 02:46:30;;;;;;;7.07;4.40;;;;;;;10.83;100.00;100416.13;2607093;22;20211;-72
2023/11/03 02:47:31;;;;;;;5.20;3.50;;;;;;;10.80;100.00;100411.44;2594620;22;20727;-72
2023/11/03 02:48:31;;;;;;;5.87;3.73;;;;;;;10.69;100.00;100404.63;2594382;22;20153;-72
2023/11/03 02:49:33;;;;;;;8.93;3.50;;;;;;;10.32;100.00;100345.13;2608055;22;20490;-72
2023/11/03 02:50:33;;;;;;;6.87;3.50;;;;;;;10.78;100.00;100407.56;2594382;22;20155;-72
2023/11/03 02:51:34;;;;;;;10.33;3.90;;;;;;;10.69;100.00;100404.63;2594690;22;20405;-72
2023/11/03 02:52:34;;;;;;;4.60;3.27;;;;;;;10.70;100.00;100398.66;2607783;22;20157;-72
2023/11/03 02:53:35;;;;;;;7.23;3.60;;;;;;;10.73;100.00;100402.56;2608143;22;20154;-72
2023/11/03 02:54:35;;;;;;;7.53;4.03;;;;;;;10.76;100.00;100401.69;2607965;22;20151;-72
2023/11/03 02:55:36;;;;;;;6.20;3.67;;;;;;;10.73;100.00;100380.38;2608112;22;20622;-72
2023/11/03 02:56:37;;;;;;;4.90;3.73;;;;;;;10.68;100.00;100376.16;2606800;22;20157;-72
2023/11/03 02:57:37;;;;;;;6.97;3.60;;;;;;;10.70;100.00;100373.72;2608225;22;20154;-72
2023/11/03 02:58:38;;;;;;;5.57;3.57;;;;;;;10.73;100.00;100374.84;2606958;22;20898;-72
2023/11/03 02:59:38;;;;;;;6.30;3.53;;;;;;;10.72;100.00;100390.69;2608099;22;20182;-72
2023/11/03 03:00:39;;;;;;;5.17;3.20;;;;;;;10.75;100.00;100386.25;2607933;22;20156;-72
2023/11/03 03:01:40;;;;;;;6.77;4.13;;;;;;;10.75;100.00;100377.94;2594409;22;20183;-72
2023/11/03 03:02:41;;;;;;;6.63;3.97;;;;;;;10.27;100.00;100304.09;2594397;22;20147;-72
2023/11/03 03:03:42;;;;;;;5.97;3.83;;;;;;;10.72;100.00;100389.91;2608039;22;20443;-72
2023/11/03 03:04:42;;;;;;;6.57;3.77;;;;;;;10.68;100.00;100376.16;2608144;22;20181;-72
2023/11/03 03:05:42;;;;;;;4.83;3.10;;;;;;;10.72;100.00;100376.06;2608021;22;20157;-72
2023/11/03 03:06:45;;;;;;;5.90;3.97;;;;;;;10.74;100.00;100376.38;2606780;22;20232;-72
2023/11/03 03:07:46;;;;;;;6.47;3.90;;;;;;;10.75;100.00;100375.16;2608107;22;20508;-72
2023/11/03 03:08:48;;;;;;;8.40;4.50;;;;;;;10.38;100.00;100303.81;2607886;22;20440;-72
2023/11/03 03:09:48;;;;;;;5.33;3.50;;;;;;;10.77;100.00;100365.19;2608008;22;20166;-72
2023/11/03 03:10:49;;;;;;;6.63;3.93;;;;;;;10.73;100.00;100347.13;2607879;22;20388;-72
2023/11/03 03:11:49;;;;;;;7.27;3.57;;;;;;;10.80;100.00;100361.56;2607714;22;20146;-72
2023/11/03 03:12:49;;;;;;;8.67;3.43;;;;;;;9.79;100.00;100187.94;2607806;22;20487;-72
2023/11/03 03:13:50;;;;;;;5.97;3.77;;;;;;;10.85;100.00;100349.13;2607713;22;20226;-72
2023/11/03 03:14:51;;;;;;;6.27;3.47;;;;;;;10.87;100.00;100338.41;2608085;22;20226;-72
2023/11/03 03:15:51;;;;;;;8.37;3.43;;;;;;;10.89;100.00;100344.28;2607969;22;20198;-72
2023/11/03 03:16:52;;;;;;;6.67;3.50;;;;;;;10.83;100.00;100324.66;2607010;22;20230;-72
2023/11/03 03:17:53;;;;;;;5.10;2.87;;;;;;;10.94;100.00;100336.19;2607745;22;20142;-72
2023/11/03 03:18:53;;;;;;;6.53;3.80;;;;;;;10.97;100.00;100329.00;2608005;22;20376;-72
2023/11/03 03:19:54;;;;;;;8.87;3.80;;;;;;;10.97;100.00;100338.06;2607700;22;20142;-72
2023/11/03 03:20:54;;;;;;;9.77;3.40;;;;;;;10.94;100.00;100329.88;2607208;22;20154;-72
2023/11/03 03:21:55;;;;;;;6.80;4.20;;;;;;;11.03;100.00;100349.41;2607875;22;20190;-72
2023/11/03 03:22:55;;;;;;;4.87;3.40;;;;;;;11.07;100.00;100344.53;2608018;22;20149;-72
2023/11/03 03:23:56;;;;;;;5.77;3.50;;;;;;;11.14;100.00;100338.78;2607770;22;20149;-72
2023/11/03 03:24:56;;;;;;;6.00;3.83;;;;;;;10.62;100.00;100249.69;2607810;22;20782;-72
2023/11/03 03:25:56;;;;;;;9.57;3.80;;;;;;;11.22;100.00;100337.34;2607216;22;20199;-71
2023/11/03 03:26:57;;;;;;;5.43;3.40;;;;;;;10.63;100.00;100245.69;2606899;22;20170;-72
2023/11/03 03:27:57;;;;;;;4.43;3.00;;;;;;;11.29;100.00;100339.88;2607639;22;20174;-72
2023/11/03 03:28:58;;;;;;;5.43;3.50;;;;;;;10.93;100.00;100270.88;2607974;22;20602;-72
2023/11/03 03:29:58;;;;;;;9.03;3.37;;;;;;;11.33;100.00;100327.44;2607879;22;20181;-72
2023/11/03 03:30:59;;;;;;;12.27;3.97;;;;;;;11.38;100.00;100326.13;2608005;22;20153;-72
2023/11/03 03:32:00;;;;;;;8.50;4.70;;;;;;;11.43;100.00;100333.91;2607739;22;20153;-72
2023/11/03 03:33:01;;;;;;;8.03;4.63;;;;;;;11.42;100.00;100322.00;2607983;22;20400;-72
2023/11/03 03:34:01;;;;;;;7.17;3.87;;;;;;;11.48;100.00;100311.91;2607794;22;20677;-72
2023/11/03 03:35:03;;;;;;;8.13;4.57;;;;;;;11.52;100.00;100326.44;2607370;22;20175;-72
2023/11/03 03:36:04;;;;;;;7.73;4.40;;;;;;;11.24;100.00;100258.00;2607652;22;20146;-72
2023/11/03 03:37:04;;;;;;;9.97;5.20;;;;;;;11.47;100.00;100290.16;2607079;22;20455;-72
2023/11/03 03:38:05;;;;;;;12.20;5.50;;;;;;;11.62;100.00;100308.69;2607654;22;20150;-72
2023/11/03 03:39:05;;;;;;;10.10;5.83;;;;;;;11.64;100.00;100309.03;2607825;22;20149;-72
2023/11/03 03:40:06;;;;;;;10.60;6.13;;;;;;;11.66;100.00;100312.16;2607327;22;20639;-72
2023/11/03 03:41:13;;;;;;;9.83;6.17;;;;;;;11.24;100.00;100233.06;2607672;22;20641;-72
2023/11/03 03:42:14;;;;;;;14.90;7.00;;;;;;;11.80;100.00;100302.56;2607769;22;20732;-72
2023/11/03 03:43:14;;;;;;;11.57;6.73;;;;;;;11.89;100.00;100310.97;2607867;22;20383;-72
2023/11/03 03:44:15;;;;;;;11.03;6.60;;;;;;;11.97;100.00;100315.84;2607827;22;20153;-72
2023/11/03 03:45:16;;;;;;;13.63;6.40;;;;;;;12.04;100.00;100317.59;2607978;22;20504;-72
2023/11/03 03:46:16;;;;;;;9.40;6.00;;;;;;;12.02;100.00;100304.16;2607226;22;20507;-72
2023/11/03 03:47:17;;;;;;;12.77;6.33;;;;;;;12.18;100.00;100329.00;2607274;22;20149;-72
2023/11/03 03:48:17;;;;;;;10.57;6.40;;;;;;;12.25;100.00;100327.97;2607532;22;20165;-72
2023/11/03 03:49:17;;;;;;;11.67;6.27;;;;;;;12.33;100.00;100329.25;2607733;22;20145;-72
2023/11/03 03:50:18;;;;;;;13.47;6.67;;;;;;;12.38;100.00;100334.25;2607562;22;20506;-72
2023/11/03 03:51:18;;;;;;;12.70;6.43;;;;;;;12.43;100.00;100331.66;2607854;22;20207;-72
2023/11/03 03:52:19;;;;;;;11.80;6.20;;;;;;;12.49;100.00;100340.19;2607803;22;20170;-72
2023/11/03 03:53:19;;;;;;;14.00;6.43;;;;;;;12.54;100.00;100340.41;2607788;22;20170;-72
2023/11/03 03:54:20;;;;;;;11.10;6.13;;;;;;;12.61;100.00;100351.25;2607232;22;20150;-72
2023/11/03 03:55:20;;;;;;;11.17;6.53;;;;;;;12.67;100.00;100354.22;2607608;22;20147;-72
2023/11/03 03:56:25;;;;;;;13.03;6.77;;;;;;;12.73;100.00;100353.19;2607418;22;20153;-72
2023/11/03 03:57:26;;;;;;;12.57;6.47;;;;;;;12.76;100.00;100357.09;2607447;22;20207;-72
2023/11/03 03:58:26;;;;;;;13.03;6.63;;;;;;;12.80;100.00;100358.50;2607742;22;20369;-72
2023/11/03 03:59:27;;;;;;;10.73;6.30;;;;;;;12.84;100.00;100364.69;2607727;22;20171;-72
2023/11/03 04:00:27;;;;;;;10.83;6.43;;;;;;;12.89;100.00;100358.56;2607665;22;20154;-72
2023/11/03 04:01:28;;;;;;;13.40;7.00;;;;;;;12.92;100.00;100354.84;2607685;22;20150;-72
2023/11/03 04:02:28;;;;;;;9.87;6.47;;;;;;;12.96;100.00;100361.09;2607767;22;20600;-70
2023/11/03 04:03:29;;;;;;;10.10;6.40;;;;;;;13.01;100.00;100356.97;2607789;22;20177;-69
2023/11/03 04:04:29;;;;;;;12.27;7.47;;;;;;;13.06;100.00;100351.56;2607746;22;20153;-69
2023/11/03 04:05:29;;;;;;;10.17;6.87;;;;;;;12.68;100.00;100287.06;2607799;22;20146;-69
2023/11/03 04:06:30;;;;;;;12.50;6.83;;;;;;;13.08;100.00;100345.56;2606810;22;20157;-69
2023/11/03 04:07:30;;;;;;;12.83;7.13;;;;;;;13.12;100.00;100340.63;2607077;22;20147;-69
2023/11/03 04:08:31;;;;;;;11.27;6.93;;;;;;;12.89;100.00;100305.72;2607227;22;20498;-69
2023/11/03 04:09:31;;;;;;;13.87;7.30;;;;;;;13.17;100.00;100356.75;2607735;22;20142;-70
2023/11/03 04:10:32;;;;;;;12.43;6.60;;;;;;;13.18;100.00;100359.06;2607673;22;20196;-69
2023/11/03 04:11:32;;;;;;;11.50;6.87;;;;;;;13.22;100.00;100359.69;2607733;22;20154;-69
2023/11/03 04:12:33;;;;;;;15.07;7.40;;;;;;;13.21;100.00;100343.47;2607645;22;20154;-69
2023/11/03 04:13:34;;;;;;;12.00;7.40;;;;;;;12.27;100.00;100203.25;2607704;22;20150;-69
2023/11/03 04:14:35;;;;;;;10.70;7.27;;;;;;;13.17;100.00;100331.69;2607891;22;20150;-69
2023/11/03 04:15:35;;;;;;;14.63;7.63;;;;;;;13.16;100.00;100321.81;2607952;22;20463;-69
2023/11/03 04:16:36;;;;;;;11.00;6.90;;;;;;;13.10;100.00;100315.25;2606374;22;20501;-69
2023/11/03 04:17:36;;;;;;;14.10;7.77;;;;;;;13.15;100.00;100318.25;2607895;22;20238;-69
2023/11/03 04:18:39;;;;;;;13.87;7.70;;;;;;;13.18;100.00;100302.63;2607453;22;20181;-69
2023/11/03 04:19:40;;;;;;;13.30;7.10;;;;;;;13.26;100.00;100309.47;2607782;22;20174;-69
2023/11/03 04:20:40;;;;;;;12.50;7.60;;;;;;;13.21;100.00;100293.38;2607788;22;20787;-69
2023/11/03 04:21:44;;;;;;;14.53;7.97;;;;;;;13.25;100.00;100294.78;2606889;22;20241;-69
2023/11/03 04:22:44;;;;;;;12.73;7.60;;;;;;;13.25;100.00;100289.22;2607778;22;20150;-69
2023/11/03 04:23:45;;;;;;;13.37;7.90;;;;;;;13.18;100.00;100280.38;2607546;22;20380;-69
2023/11/03 04:24:46;;;;;;;13.20;7.63;;;;;;;13.06;100.00;100270.13;2607489;22;20194;-69
2023/11/03 04:25:46;;;;;;;13.50;7.73;;;;;;;13.08;100.00;100273.22;2607663;22;20141;-69
2023/11/03 04:26:48;;;;;;;12.33;7.47;;;;;;;13.06;100.00;100270.91;2606682;22;20381;-69
2023/11/03 04:27:48;;;;;;;14.53;7.07;;;;;;;12.97;100.00;100262.50;2594015;22;20248;-69
2023/11/03 04:28:49;;;;;;;15.57;8.00;;;;;;;13.07;100.00;100275.22;2593957;22;20432;-69
2023/11/03 04:29:49;;;;;;;14.37;7.97;;;;;;;13.12;100.00;100280.19;2607555;22;20145;-69
2023/11/03 04:30:52;;;;;;;13.53;7.33;;;;;;;13.16;100.00;100282.84;2607722;22;20528;-69
2023/11/03 04:31:53;;;;;;;12.33;6.80;;;;;;;13.07;100.00;100280.03;2607415;22;20146;-69
2023/11/03 04:32:53;;;;;;;15.03;8.53;;;;;;;12.99;100.00;100270.41;2607773;22;20373;-69
2023/11/03 04:33:54;;;;;;;13.30;8.40;;;;;;;13.01;100.00;100273.53;2607459;22;20608;-71
2023/11/03 04:34:55;;;;;;;14.80;7.70;;;;;;;13.00;100.00;100281.06;2607821;22;20245;-72
2023/11/03 04:35:55;;;;;;;15.17;8.40;;;;;;;13.03;100.00;100274.63;2606972;22;20495;-69
2023/11/03 04:36:56;;;;;;;14.60;7.60;;;;;;;13.09;100.00;100272.78;2606671;22;20174;-69
2023/11/03 04:37:56;;;;;;;14.93;8.87;;;;;;;13.12;100.00;100280.19;2607285;22;20150;-69
2023/11/03 04:38:57;;;;;;;19.10;8.03;;;;;;;13.15;100.00;100268.16;2607529;22;20150;-69